Harrison, Pennsylvania
Current Conditions -  °F | °C
As of 7:56 PM on Wednesday 22 Oct 2014 (Local Time) from KELZ Reporting Station
Haze Haze  
Wind Chill: 37°   Ceiling: 200
Heat Index: 41°   Visibility: 6mi
Dew Point: 39°   Wind: 6mph
Humidity: 93%   Direction: NA
Pressure: 30.15"   Gusts: 16mph
Location:  41.9546°N, 77.7018°W
Report Text: KELZ 222356Z AUTO VRB05G14KT 6SM BR OVC002 05/04 A3015 RMK AO2 SLP224 60000 T00500039 10050 20050 51003
Loading
Personal Weather Stations






























Interactive Weather Map
Tropical Storm Tracking
New forecast layout! Learn more

10-Day Weather Forecast

Advertisements
Track Severe Weather on mobile